createdAt,value
2017-12-25T00:00:18.657Z,3.00
2017-12-25T00:02:46.993Z,3.00
2017-12-25T00:05:15.344Z,3.00
2017-12-25T00:07:43.696Z,3.00
2017-12-25T00:10:12.035Z,3.00
2017-12-25T00:12:40.375Z,3.00
2017-12-25T00:15:08.739Z,3.00
2017-12-25T00:17:37.066Z,3.00
2017-12-25T00:20:05.419Z,2.90
2017-12-25T00:22:33.767Z,2.90
2017-12-25T00:25:02.127Z,2.90
2017-12-25T00:27:30.464Z,2.90
2017-12-25T00:29:58.801Z,2.90
2017-12-25T00:32:27.156Z,2.80
2017-12-25T00:34:55.495Z,2.90
2017-12-25T00:37:23.858Z,2.90
2017-12-25T00:39:52.863Z,2.90
2017-12-25T00:42:21.208Z,2.80
2017-12-25T00:44:49.673Z,2.90
2017-12-25T00:47:18.015Z,2.90
2017-12-25T00:49:47.136Z,2.90
2017-12-25T00:52:15.466Z,2.80
2017-12-25T00:54:43.787Z,2.90
2017-12-25T00:57:12.150Z,2.90
2017-12-25T00:59:41.264Z,2.80
2017-12-25T01:02:09.612Z,2.80
2017-12-25T01:04:38.815Z,2.80
2017-12-25T01:07:07.911Z,2.70
2017-12-25T01:09:36.273Z,2.70
2017-12-25T01:12:04.624Z,2.80
2017-12-25T01:14:32.984Z,2.70
2017-12-25T01:17:01.319Z,2.80
2017-12-25T01:19:29.908Z,2.80
2017-12-25T01:21:59.026Z,2.80
2017-12-25T01:24:27.365Z,2.80
2017-12-25T01:26:56.489Z,2.90
2017-12-25T01:29:24.835Z,2.80
2017-12-25T01:31:53.940Z,2.60
2017-12-25T01:34:23.044Z,2.70
2017-12-25T01:36:52.202Z,2.60
2017-12-25T01:39:21.155Z,2.70
2017-12-25T01:41:49.682Z,2.80
2017-12-25T01:44:18.022Z,2.80
2017-12-25T01:49:59.912Z,2.70
2017-12-25T01:52:27.709Z,2.80
2017-12-25T01:54:56.088Z,2.70
2017-12-25T01:57:34.502Z,2.70
2017-12-25T02:00:04.902Z,2.90
2017-12-25T02:02:34.484Z,2.90
2017-12-25T02:08:27.334Z,2.90
2017-12-25T02:10:56.440Z,2.70
2017-12-25T02:13:24.798Z,2.70
2017-12-25T02:15:52.811Z,2.60
2017-12-25T02:18:21.185Z,2.70
2017-12-25T02:20:49.716Z,2.70
2017-12-25T02:23:18.070Z,2.70
2017-12-25T02:25:46.434Z,2.60
2017-12-25T02:28:14.781Z,2.70
2017-12-25T02:30:43.145Z,2.80
2017-12-25T02:33:12.262Z,2.70
2017-12-25T02:35:40.629Z,2.70
2017-12-25T02:38:08.960Z,2.60
2017-12-25T02:40:37.317Z,2.50
2017-12-25T02:43:05.677Z,2.60
2017-12-25T02:48:24.596Z,2.70
2017-12-25T02:50:52.938Z,2.70
2017-12-25T02:53:21.277Z,2.70
2017-12-25T02:55:50.395Z,2.60
2017-12-25T02:58:18.736Z,2.60
2017-12-25T03:00:47.854Z,2.50
2017-12-25T03:03:16.202Z,2.50
2017-12-25T03:05:44.567Z,2.50
2017-12-25T03:08:12.903Z,2.70
2017-12-25T03:10:41.245Z,2.70
2017-12-25T03:13:10.346Z,2.80
2017-12-25T03:15:38.684Z,2.80
2017-12-25T03:18:07.020Z,2.70
2017-12-25T03:20:35.367Z,2.70
2017-12-25T03:23:04.472Z,2.70
2017-12-25T03:25:32.881Z,2.70
2017-12-25T03:28:01.382Z,2.80
2017-12-25T03:30:29.744Z,2.70
2017-12-25T03:32:58.080Z,2.40
2017-12-25T03:35:26.419Z,2.40
2017-12-25T03:37:54.789Z,2.50
2017-12-25T03:40:23.123Z,2.50
2017-12-25T03:42:52.172Z,2.60
2017-12-25T03:45:20.996Z,2.60
2017-12-25T03:47:49.344Z,2.60
2017-12-25T03:50:17.725Z,2.70
2017-12-25T03:52:46.069Z,2.60
2017-12-25T03:55:14.417Z,2.50
2017-12-25T03:57:42.747Z,2.50
2017-12-25T04:00:11.105Z,2.50
2017-12-25T04:02:39.445Z,2.60
2017-12-25T04:05:07.780Z,2.50
2017-12-25T04:07:36.132Z,2.50
2017-12-25T04:10:05.447Z,2.60
2017-12-25T04:12:33.792Z,2.50
2017-12-25T04:15:02.134Z,2.40
2017-12-25T04:17:31.247Z,2.40
2017-12-25T04:19:59.594Z,2.40
2017-12-25T04:22:28.699Z,2.50
2017-12-25T04:24:57.826Z,2.40
2017-12-25T04:27:26.160Z,2.40
2017-12-25T04:29:55.276Z,2.30
2017-12-25T04:32:23.613Z,2.30
2017-12-25T04:34:51.994Z,2.30
2017-12-25T04:37:20.692Z,2.30
2017-12-25T04:39:49.846Z,2.20
2017-12-25T04:42:18.222Z,2.20
2017-12-25T04:44:46.543Z,2.10
2017-12-25T04:47:15.659Z,2.10
2017-12-25T04:49:44.013Z,2.10
2017-12-25T04:52:13.107Z,2.10
2017-12-25T04:54:42.278Z,2.20
2017-12-25T04:57:10.617Z,2.20
2017-12-25T04:59:38.948Z,2.30
2017-12-25T05:02:07.303Z,2.20
2017-12-25T05:04:35.649Z,2.20
2017-12-25T05:07:03.975Z,2.40
2017-12-25T05:09:32.353Z,2.40
2017-12-25T05:12:00.684Z,2.30
2017-12-25T05:14:29.051Z,2.40
2017-12-25T05:16:57.375Z,2.40
2017-12-25T05:19:25.722Z,2.40
2017-12-25T05:21:54.069Z,2.50
2017-12-25T05:24:22.523Z,2.40
2017-12-25T05:26:52.458Z,2.50
2017-12-25T05:29:22.247Z,2.60
2017-12-25T05:31:51.355Z,2.50
2017-12-25T05:34:20.477Z,2.40
2017-12-25T05:36:48.812Z,2.50
2017-12-25T05:39:17.921Z,2.20
2017-12-25T05:41:47.032Z,2.20
2017-12-25T05:44:15.354Z,2.20
2017-12-25T05:46:43.673Z,2.20
2017-12-25T05:49:12.042Z,2.20
2017-12-25T05:51:41.130Z,2.20
2017-12-25T05:54:10.231Z,2.20
2017-12-25T05:56:39.359Z,2.10
2017-12-25T05:59:08.197Z,2.10
2017-12-25T06:01:36.537Z,2.20
2017-12-25T06:04:04.878Z,2.20
2017-12-25T06:06:33.999Z,2.50
2017-12-25T06:09:02.337Z,2.40
2017-12-25T06:11:31.453Z,2.20
2017-12-25T06:13:59.788Z,2.20
2017-12-25T06:16:28.138Z,2.20
2017-12-25T06:18:56.490Z,2.20
2017-12-25T06:21:24.828Z,2.20
2017-12-25T06:23:53.285Z,2.20
2017-12-25T06:26:21.757Z,2.10
2017-12-25T06:28:50.629Z,2.20
2017-12-25T06:31:18.998Z,2.20
2017-12-25T06:33:47.343Z,2.20
2017-12-25T06:36:16.451Z,2.40
2017-12-25T06:38:45.578Z,2.50
2017-12-25T06:41:13.918Z,2.50
2017-12-25T06:43:43.023Z,2.40
2017-12-25T06:46:11.366Z,2.50
2017-12-25T06:48:39.705Z,2.40
2017-12-25T06:51:08.030Z,2.30
2017-12-25T06:53:37.146Z,2.50
2017-12-25T06:56:05.486Z,2.40
2017-12-25T06:58:33.848Z,2.50
2017-12-25T07:01:02.202Z,2.40
2017-12-25T07:03:30.562Z,2.40
2017-12-25T07:05:58.903Z,2.40
2017-12-25T07:08:27.273Z,2.40
2017-12-25T07:10:55.599Z,2.40
2017-12-25T07:13:23.957Z,2.30
2017-12-25T07:15:53.069Z,2.30
2017-12-25T07:18:21.400Z,2.30
2017-12-25T07:20:49.843Z,2.30
2017-12-25T07:23:18.168Z,2.20
2017-12-25T07:25:47.272Z,2.20
2017-12-25T07:28:16.387Z,2.20
2017-12-25T07:30:44.725Z,2.20
2017-12-25T07:33:13.102Z,2.20
2017-12-25T07:35:41.440Z,2.20
2017-12-25T07:38:09.779Z,2.10
2017-12-25T07:40:38.127Z,2.20
2017-12-25T07:43:06.465Z,2.20
2017-12-25T07:45:34.816Z,2.10
2017-12-25T07:48:03.152Z,2.20
2017-12-25T07:50:31.516Z,2.20
2017-12-25T07:52:59.856Z,2.20
2017-12-25T07:55:28.193Z,2.10
2017-12-25T07:57:56.557Z,2.20
2017-12-25T08:00:24.900Z,2.10
2017-12-25T08:02:53.259Z,2.10
2017-12-25T08:05:22.377Z,2.10
2017-12-25T08:07:51.221Z,2.10
2017-12-25T08:10:21.414Z,2.10
2017-12-25T08:12:49.940Z,2.10
2017-12-25T08:15:18.280Z,2.10
2017-12-25T08:17:46.643Z,2.10
2017-12-25T08:20:15.001Z,2.00
2017-12-25T08:22:43.321Z,2.00
2017-12-25T08:25:12.430Z,2.00
2017-12-25T08:27:41.548Z,1.90
2017-12-25T08:30:09.897Z,1.90
2017-12-25T08:32:39.019Z,1.80
2017-12-25T08:35:07.353Z,1.80
2017-12-25T08:37:35.737Z,1.80
2017-12-25T08:40:04.846Z,1.80
2017-12-25T08:42:33.938Z,1.80
2017-12-25T08:45:03.062Z,1.80
2017-12-25T08:47:32.350Z,1.80
2017-12-25T08:50:00.712Z,1.90
2017-12-25T08:52:29.800Z,1.90
2017-12-25T08:54:58.921Z,1.90
2017-12-25T08:57:27.278Z,1.80
2017-12-25T08:59:56.371Z,1.90
2017-12-25T09:02:25.526Z,2.00
2017-12-25T09:04:53.673Z,2.00
2017-12-25T09:07:22.016Z,2.00
2017-12-25T09:09:51.981Z,2.10
2017-12-25T09:12:20.825Z,2.10
2017-12-25T09:14:49.174Z,2.10
2017-12-25T09:17:17.523Z,2.10
2017-12-25T09:19:45.901Z,2.10
2017-12-25T09:22:14.226Z,2.20
2017-12-25T09:24:43.405Z,2.40
2017-12-25T09:27:11.755Z,2.40
2017-12-25T09:29:40.094Z,2.50
2017-12-25T09:32:08.438Z,2.50
2017-12-25T09:34:37.538Z,2.50
2017-12-25T09:37:06.834Z,2.60
2017-12-25T09:39:35.943Z,2.60
2017-12-25T09:42:04.290Z,2.60
2017-12-25T09:44:32.643Z,2.60
2017-12-25T09:47:00.971Z,0.00
2017-12-25T09:49:30.082Z,2.70
2017-12-25T09:51:58.413Z,2.70
2017-12-25T09:54:26.782Z,2.70
2017-12-25T09:56:55.129Z,2.80
2017-12-25T09:59:23.461Z,2.70
2017-12-25T10:01:52.873Z,2.90
2017-12-25T10:04:22.772Z,2.80
2017-12-25T10:06:51.548Z,2.80
2017-12-25T10:09:19.978Z,2.80
2017-12-25T10:11:48.305Z,2.90
2017-12-25T10:14:16.464Z,2.90
2017-12-25T10:16:44.796Z,2.80
2017-12-25T10:19:13.135Z,2.90
2017-12-25T10:21:41.518Z,3.00
2017-12-25T10:24:09.844Z,3.20
2017-12-25T10:26:38.199Z,3.30
2017-12-25T10:29:07.488Z,3.30
2017-12-25T10:31:36.585Z,3.30
2017-12-25T10:34:05.679Z,3.40
2017-12-25T10:36:34.022Z,3.40
2017-12-25T10:39:02.394Z,3.40
2017-12-25T10:41:30.730Z,3.50
2017-12-25T10:43:59.073Z,3.70
2017-12-25T10:46:29.176Z,3.80
2017-12-25T10:48:57.522Z,3.80
2017-12-25T10:51:25.853Z,3.80
2017-12-25T10:53:54.191Z,3.80
2017-12-25T10:56:22.809Z,3.90
2017-12-25T10:58:51.569Z,3.90
2017-12-25T11:01:20.099Z,4.00
2017-12-25T11:03:48.419Z,4.00
2017-12-25T11:06:16.785Z,4.00
2017-12-25T11:08:45.128Z,1.90
2017-12-25T11:11:13.457Z,4.00
2017-12-25T11:13:41.820Z,4.10
2017-12-25T11:16:10.168Z,4.20
2017-12-25T11:18:38.497Z,4.10
2017-12-25T11:21:07.613Z,4.30
2017-12-25T11:23:35.978Z,4.30
2017-12-25T11:26:05.086Z,4.50
2017-12-25T11:28:33.431Z,4.40
2017-12-25T11:31:01.814Z,4.50
2017-12-25T11:33:30.149Z,4.50
2017-12-25T11:35:58.489Z,4.50
2017-12-25T11:38:26.831Z,4.50
2017-12-25T11:40:55.194Z,4.60
2017-12-25T11:43:23.543Z,4.60
2017-12-25T11:45:52.856Z,4.50
2017-12-25T11:48:21.170Z,4.50
2017-12-25T11:50:50.760Z,4.70
2017-12-25T11:53:19.099Z,4.70
2017-12-25T11:55:47.530Z,4.70
2017-12-25T11:58:16.673Z,4.70
2017-12-25T12:00:45.938Z,4.60
2017-12-25T12:03:15.058Z,4.70
2017-12-25T12:05:43.433Z,4.70
2017-12-25T12:08:11.948Z,4.80
2017-12-25T12:10:40.294Z,4.80
2017-12-25T12:13:08.641Z,4.80
2017-12-25T12:15:37.022Z,4.60
2017-12-25T12:18:06.137Z,4.70
2017-12-25T12:20:34.509Z,4.70
2017-12-25T12:23:02.841Z,4.80
2017-12-25T12:25:31.220Z,4.70
2017-12-25T12:27:59.572Z,4.70
2017-12-25T12:30:27.946Z,4.80
2017-12-25T12:32:56.321Z,4.80
2017-12-25T12:35:24.652Z,4.70
2017-12-25T12:37:53.748Z,4.70
2017-12-25T12:40:22.915Z,4.70
2017-12-25T12:42:52.046Z,4.80
2017-12-25T12:45:20.437Z,4.70
2017-12-25T12:47:48.785Z,4.70
2017-12-25T12:50:17.153Z,4.80
2017-12-25T12:52:46.283Z,5.00
2017-12-25T12:55:14.616Z,5.00
2017-12-25T12:57:42.962Z,5.00
2017-12-25T13:00:11.316Z,4.80
2017-12-25T13:02:39.674Z,4.90
2017-12-25T13:05:08.021Z,4.80
2017-12-25T13:07:36.364Z,4.90
2017-12-25T13:10:04.742Z,5.00
2017-12-25T13:12:33.849Z,4.90
2017-12-25T13:15:02.176Z,4.90
2017-12-25T13:17:30.528Z,4.90
2017-12-25T13:19:59.627Z,4.60
2017-12-25T13:22:28.737Z,4.60
2017-12-25T13:24:57.093Z,4.50
2017-12-25T13:27:26.191Z,4.50
2017-12-25T13:29:55.324Z,4.70
2017-12-25T13:32:23.670Z,4.70
2017-12-25T13:34:53.197Z,4.50
2017-12-25T13:37:21.557Z,4.50
2017-12-25T13:39:50.245Z,4.40
2017-12-25T13:42:18.603Z,4.70
2017-12-25T13:44:47.718Z,4.70
2017-12-25T13:47:16.054Z,4.70
2017-12-25T13:49:44.417Z,4.60
2017-12-25T13:52:12.767Z,4.50
2017-12-25T13:54:41.112Z,4.50
2017-12-25T13:57:10.237Z,4.50
2017-12-25T13:59:38.582Z,4.40
2017-12-25T14:02:07.699Z,4.30
2017-12-25T14:04:36.055Z,4.30
2017-12-25T14:07:04.508Z,4.20
2017-12-25T14:09:32.854Z,4.20
2017-12-25T14:12:01.194Z,4.10
2017-12-25T14:14:29.583Z,4.00
2017-12-25T14:16:57.921Z,3.70
2017-12-25T14:19:26.321Z,3.70
2017-12-25T14:21:55.419Z,3.80
2017-12-25T14:24:23.766Z,3.70
2017-12-25T14:26:52.528Z,4.00
2017-12-25T14:29:21.645Z,4.00
2017-12-25T14:31:50.171Z,4.00
2017-12-25T14:34:18.510Z,4.00
2017-12-25T14:36:47.626Z,3.80
2017-12-25T14:39:15.994Z,3.80
2017-12-25T14:41:45.095Z,3.70
2017-12-25T14:44:14.190Z,3.60
2017-12-25T14:46:42.558Z,3.60
2017-12-25T14:49:11.315Z,3.80
2017-12-25T14:51:39.685Z,3.80
2017-12-25T14:54:08.007Z,1.80
2017-12-25T14:56:36.362Z,3.80
2017-12-25T14:59:04.700Z,3.60
2017-12-25T15:01:33.068Z,3.40
2017-12-25T15:04:01.437Z,3.40
2017-12-25T15:06:29.776Z,3.40
2017-12-25T15:08:58.894Z,3.00
2017-12-25T15:11:27.259Z,3.00
2017-12-25T15:13:55.578Z,3.00
2017-12-25T15:16:23.926Z,2.90
2017-12-25T15:18:52.285Z,2.70
2017-12-25T15:21:22.353Z,2.90
2017-12-25T15:23:51.026Z,2.90
2017-12-25T15:26:19.359Z,2.50
2017-12-25T15:28:48.476Z,2.40
2017-12-25T15:31:16.816Z,2.40
2017-12-25T15:33:45.937Z,2.60
2017-12-25T15:36:14.285Z,2.60
2017-12-25T15:38:42.640Z,2.70
2017-12-25T15:41:11.011Z,2.50
2017-12-25T15:43:39.370Z,2.30
2017-12-25T15:46:08.697Z,2.40
2017-12-25T15:48:37.032Z,2.60
2017-12-25T15:51:05.390Z,2.50
2017-12-25T15:53:33.729Z,2.30
2017-12-25T15:56:02.082Z,2.20
2017-12-25T15:58:30.420Z,2.40
2017-12-25T16:00:58.771Z,2.40
2017-12-25T16:03:27.135Z,2.40
2017-12-25T16:05:55.481Z,2.70
2017-12-25T16:08:23.851Z,2.20
2017-12-25T16:10:52.409Z,1.90
2017-12-25T16:13:21.800Z,2.20
2017-12-25T16:15:50.936Z,2.50
2017-12-25T16:18:20.183Z,2.30
2017-12-25T16:20:49.306Z,1.80
2017-12-25T16:23:17.632Z,1.70
2017-12-25T16:25:45.996Z,1.90
2017-12-25T16:28:14.344Z,2.00
2017-12-25T16:30:42.671Z,1.90
2017-12-25T16:33:11.035Z,1.70
2017-12-25T16:35:39.385Z,1.90
2017-12-25T16:38:07.730Z,1.90
2017-12-25T16:40:36.090Z,2.00
2017-12-25T16:43:05.201Z,1.50
2017-12-25T16:45:33.544Z,1.50
2017-12-25T16:48:01.916Z,1.50
2017-12-25T16:50:30.248Z,1.90
2017-12-25T16:52:58.584Z,2.20
2017-12-25T16:55:27.719Z,2.50
2017-12-25T16:57:56.067Z,2.50
2017-12-25T17:00:25.172Z,2.10
2017-12-25T17:02:53.524Z,2.10
2017-12-25T17:05:23.476Z,2.40
2017-12-25T17:07:51.840Z,2.40
2017-12-25T17:10:20.232Z,2.40
2017-12-25T17:12:48.587Z,2.30
2017-12-25T17:15:17.696Z,1.80
2017-12-25T17:17:46.033Z,1.90
2017-12-25T17:20:14.378Z,1.60
2017-12-25T17:22:42.727Z,1.30
2017-12-25T17:25:11.084Z,1.30
2017-12-25T17:27:40.202Z,1.30
2017-12-25T17:30:08.524Z,1.30
2017-12-25T17:32:36.882Z,1.10
2017-12-25T17:35:05.225Z,1.10
2017-12-25T17:37:33.564Z,1.40
2017-12-25T17:40:01.942Z,1.40
2017-12-25T17:42:30.286Z,1.40
2017-12-25T17:44:58.641Z,1.60
2017-12-25T17:47:26.985Z,1.60
2017-12-25T17:49:56.102Z,1.50
2017-12-25T17:52:24.441Z,1.50
2017-12-25T17:54:53.054Z,1.10
2017-12-25T17:57:21.394Z,1.40
2017-12-25T17:59:49.769Z,1.30
2017-12-25T18:02:18.131Z,1.20
2017-12-25T18:04:46.461Z,1.20
2017-12-25T18:07:14.797Z,1.50
2017-12-25T18:09:43.147Z,1.20
2017-12-25T18:12:11.488Z,1.30
2017-12-25T18:14:39.830Z,1.40
2017-12-25T18:17:08.180Z,1.60
2017-12-25T18:19:36.524Z,1.70
2017-12-25T18:22:04.871Z,1.60
2017-12-25T18:24:33.984Z,1.40
2017-12-25T18:27:02.323Z,1.40
2017-12-25T18:29:30.675Z,1.20
2017-12-25T18:31:59.017Z,1.40
2017-12-25T18:34:27.364Z,1.30
2017-12-25T18:36:55.702Z,1.50
2017-12-25T18:39:24.044Z,1.40
2017-12-25T18:41:52.449Z,1.50
2017-12-25T18:44:21.462Z,1.50
2017-12-25T18:46:49.937Z,1.70
2017-12-25T18:49:19.551Z,1.40
2017-12-25T18:51:47.908Z,1.40
2017-12-25T18:54:16.241Z,1.40
2017-12-25T18:56:45.367Z,1.50
2017-12-25T18:59:13.705Z,1.40
2017-12-25T19:01:42.928Z,1.50
2017-12-25T19:04:11.317Z,1.50
2017-12-25T19:06:39.680Z,1.60
2017-12-25T19:09:08.009Z,1.60
2017-12-25T19:11:36.342Z,1.80
2017-12-25T19:14:04.680Z,1.70
2017-12-25T19:16:33.787Z,1.40
2017-12-25T19:19:02.885Z,1.30
2017-12-25T19:21:31.239Z,1.30
2017-12-25T19:23:59.607Z,1.40
2017-12-25T19:26:27.964Z,1.30
2017-12-25T19:28:56.291Z,1.40
2017-12-25T19:31:25.350Z,1.30
2017-12-25T19:33:53.706Z,1.30
2017-12-25T19:36:22.793Z,1.40
2017-12-25T19:38:51.641Z,1.40
2017-12-25T19:41:21.234Z,1.10
2017-12-25T19:43:50.402Z,1.10
2017-12-25T19:46:19.507Z,1.10
2017-12-25T19:48:47.876Z,1.10
2017-12-25T19:51:16.217Z,1.20
2017-12-25T19:53:44.586Z,1.40
2017-12-25T19:56:12.934Z,1.50
2017-12-25T19:58:41.458Z,1.50
2017-12-25T20:01:09.805Z,1.50
2017-12-25T20:03:38.152Z,1.50
2017-12-25T20:06:06.533Z,1.50
2017-12-25T20:08:34.914Z,1.70
2017-12-25T20:11:03.406Z,1.70
2017-12-25T20:13:32.511Z,1.80
2017-12-25T20:16:00.843Z,1.70
2017-12-25T20:18:29.386Z,1.80
2017-12-25T20:20:57.721Z,1.90
2017-12-25T20:23:27.795Z,1.90
2017-12-25T20:25:56.131Z,1.90
2017-12-25T20:28:25.260Z,1.70
2017-12-25T20:30:54.365Z,1.60
2017-12-25T20:33:23.381Z,1.60
2017-12-25T20:35:51.855Z,1.70
2017-12-25T20:38:20.394Z,1.80
2017-12-25T20:40:48.743Z,1.80
2017-12-25T20:43:17.893Z,1.90
2017-12-25T20:45:46.229Z,1.80
2017-12-25T20:48:14.585Z,2.00
2017-12-25T20:50:43.677Z,1.80
2017-12-25T20:53:12.807Z,1.60
2017-12-25T20:55:41.149Z,1.60
2017-12-25T20:58:10.235Z,1.50
2017-12-25T21:00:38.601Z,1.50
2017-12-25T21:03:06.933Z,1.40
2017-12-25T21:05:35.301Z,1.50
2017-12-25T21:08:03.677Z,1.70
2017-12-25T21:10:32.025Z,1.70
2017-12-25T21:13:01.203Z,1.70
2017-12-25T21:15:29.600Z,1.70
2017-12-25T21:17:58.710Z,1.80
2017-12-25T21:20:28.013Z,1.60
2017-12-25T21:22:56.352Z,1.60
2017-12-25T21:25:24.719Z,1.60
2017-12-25T21:27:53.298Z,1.60
2017-12-25T21:30:22.002Z,1.70
2017-12-25T21:32:51.739Z,1.80
2017-12-25T21:37:52.085Z,2.00
2017-12-25T21:40:21.740Z,2.00
2017-12-25T21:42:51.907Z,2.00
2017-12-25T21:45:20.506Z,2.00
2017-12-25T21:47:48.950Z,1.90
2017-12-25T21:50:17.381Z,1.90
2017-12-25T21:52:45.807Z,1.90
2017-12-25T21:55:14.286Z,1.80
2017-12-25T21:57:42.725Z,1.80
2017-12-25T22:00:11.128Z,1.80
2017-12-25T22:02:40.357Z,1.60
2017-12-25T22:05:08.770Z,1.70
2017-12-25T22:07:37.185Z,1.60
2017-12-25T22:10:06.383Z,1.40
2017-12-25T22:12:34.805Z,1.40
2017-12-25T22:15:04.045Z,1.30
2017-12-25T22:17:32.465Z,1.40
2017-12-25T22:20:00.889Z,1.30
2017-12-25T22:22:29.352Z,1.30
2017-12-25T22:24:57.775Z,1.30
2017-12-25T22:27:26.231Z,1.30
2017-12-25T22:29:54.642Z,1.20
2017-12-25T22:32:23.119Z,1.20
2017-12-25T22:34:51.535Z,1.10
2017-12-25T22:37:19.981Z,1.20
2017-12-25T22:39:49.182Z,1.20
2017-12-25T22:42:17.608Z,1.40
2017-12-25T22:44:46.649Z,1.50
2017-12-25T22:47:15.084Z,1.60
2017-12-25T22:49:44.291Z,1.60
2017-12-25T22:52:13.490Z,1.60
2017-12-25T22:54:41.892Z,1.60
2017-12-25T22:57:10.344Z,1.50
2017-12-25T22:59:39.511Z,1.40
2017-12-25T23:02:07.918Z,1.40
2017-12-25T23:04:36.329Z,1.50
2017-12-25T23:07:04.740Z,1.60
2017-12-25T23:09:33.141Z,1.60
2017-12-25T23:12:01.648Z,1.50
2017-12-25T23:14:30.078Z,1.50
2017-12-25T23:16:58.503Z,1.50
2017-12-25T23:19:27.689Z,1.40
2017-12-25T23:21:56.091Z,1.30
2017-12-25T23:24:24.542Z,1.40
2017-12-25T23:26:53.761Z,1.40
2017-12-25T23:29:22.180Z,1.40
2017-12-25T23:31:51.348Z,1.50
2017-12-25T23:34:19.764Z,1.50
2017-12-25T23:36:48.180Z,1.50
2017-12-25T23:39:16.624Z,1.40
2017-12-25T23:41:45.814Z,1.40
2017-12-25T23:44:14.258Z,1.40
2017-12-25T23:46:43.457Z,1.10
2017-12-25T23:49:11.889Z,1.10
2017-12-25T23:51:41.065Z,1.10
2017-12-25T23:54:08.793Z,1.10
2017-12-25T23:56:37.509Z,1.00
2017-12-25T23:59:06.660Z,1.00
